sensor_id;sensor_type;location;lat;lon;timestamp;P1;durP1;ratioP1;P2;durP2;ratioP2
59207;SDS011;44977;53.132;6.408;2023-04-01T00:02:21;8.23;;;6.50;;
59207;SDS011;44977;53.132;6.408;2023-04-01T00:07:22;10.18;;;7.35;;
59207;SDS011;44977;53.132;6.408;2023-04-01T00:12:23;8.60;;;6.40;;
59207;SDS011;44977;53.132;6.408;2023-04-01T00:17:25;10.07;;;7.53;;
59207;SDS011;44977;53.132;6.408;2023-04-01T00:22:26;8.95;;;6.95;;
59207;SDS011;44977;53.132;6.408;2023-04-01T00:27:27;10.57;;;8.20;;
59207;SDS011;44977;53.132;6.408;2023-04-01T00:32:28;9.75;;;8.13;;
59207;SDS011;44977;53.132;6.408;2023-04-01T00:37:30;10.60;;;7.75;;
59207;SDS011;44977;53.132;6.408;2023-04-01T00:42:34;10.82;;;7.88;;
59207;SDS011;44977;53.132;6.408;2023-04-01T00:47:34;11.35;;;8.43;;
59207;SDS011;44977;53.132;6.408;2023-04-01T00:52:35;11.05;;;7.95;;
59207;SDS011;44977;53.132;6.408;2023-04-01T00:57:36;9.75;;;7.32;;
59207;SDS011;44977;53.132;6.408;2023-04-01T01:02:41;10.07;;;7.82;;
59207;SDS011;44977;53.132;6.408;2023-04-01T01:07:47;9.70;;;7.57;;
59207;SDS011;44977;53.132;6.408;2023-04-01T01:23:21;10.93;;;8.40;;
59207;SDS011;44977;53.132;6.408;2023-04-01T01:28:46;9.83;;;7.60;;
59207;SDS011;44977;53.132;6.408;2023-04-01T01:39:21;10.88;;;8.68;;
59207;SDS011;44977;53.132;6.408;2023-04-01T01:44:27;10.48;;;8.45;;
59207;SDS011;44977;53.132;6.408;2023-04-01T01:49:29;10.93;;;8.63;;
59207;SDS011;44977;53.132;6.408;2023-04-01T01:54:33;11.10;;;8.82;;
59207;SDS011;44977;53.132;6.408;2023-04-01T01:59:34;10.40;;;8.25;;
59207;SDS011;44977;53.132;6.408;2023-04-01T02:04:38;10.48;;;8.02;;
59207;SDS011;44977;53.132;6.408;2023-04-01T02:09:42;10.80;;;8.32;;
59207;SDS011;44977;53.132;6.408;2023-04-01T02:14:45;11.20;;;9.10;;
59207;SDS011;44977;53.132;6.408;2023-04-01T02:20:02;11.60;;;8.60;;
59207;SDS011;44977;53.132;6.408;2023-04-01T02:25:08;11.05;;;8.63;;
59207;SDS011;44977;53.132;6.408;2023-04-01T02:35:16;11.82;;;8.82;;
59207;SDS011;44977;53.132;6.408;2023-04-01T02:40:18;11.27;;;8.60;;
59207;SDS011;44977;53.132;6.408;2023-04-01T02:45:19;11.32;;;8.80;;
59207;SDS011;44977;53.132;6.408;2023-04-01T02:50:20;12.35;;;9.90;;
59207;SDS011;44977;53.132;6.408;2023-04-01T02:55:20;12.18;;;9.88;;
59207;SDS011;44977;53.132;6.408;2023-04-01T03:00:21;11.70;;;9.82;;
59207;SDS011;44977;53.132;6.408;2023-04-01T03:05:22;12.05;;;9.63;;
59207;SDS011;44977;53.132;6.408;2023-04-01T03:10:23;12.68;;;10.00;;
59207;SDS011;44977;53.132;6.408;2023-04-01T03:15:24;13.52;;;9.85;;
59207;SDS011;44977;53.132;6.408;2023-04-01T03:20:25;12.85;;;9.02;;
59207;SDS011;44977;53.132;6.408;2023-04-01T03:25:25;11.65;;;9.82;;
59207;SDS011;44977;53.132;6.408;2023-04-01T03:30:28;11.90;;;10.27;;
59207;SDS011;44977;53.132;6.408;2023-04-01T03:35:33;13.65;;;11.05;;
59207;SDS011;44977;53.132;6.408;2023-04-01T03:40:36;14.00;;;11.25;;
59207;SDS011;44977;53.132;6.408;2023-04-01T03:45:48;14.52;;;11.27;;
59207;SDS011;44977;53.132;6.408;2023-04-01T03:50:50;13.45;;;11.35;;
59207;SDS011;44977;53.132;6.408;2023-04-01T03:55:51;14.52;;;12.23;;
59207;SDS011;44977;53.132;6.408;2023-04-01T04:00:52;13.55;;;11.18;;
59207;SDS011;44977;53.132;6.408;2023-04-01T04:05:52;13.95;;;11.27;;
59207;SDS011;44977;53.132;6.408;2023-04-01T04:10:56;16.95;;;12.38;;
59207;SDS011;44977;53.132;6.408;2023-04-01T04:15:57;15.85;;;12.73;;
59207;SDS011;44977;53.132;6.408;2023-04-01T04:20:58;15.73;;;13.02;;
59207;SDS011;44977;53.132;6.408;2023-04-01T04:26:00;15.80;;;13.25;;
59207;SDS011;44977;53.132;6.408;2023-04-01T04:31:02;17.33;;;14.70;;
59207;SDS011;44977;53.132;6.408;2023-04-01T04:36:05;17.40;;;13.95;;
59207;SDS011;44977;53.132;6.408;2023-04-01T04:41:09;17.92;;;13.68;;
59207;SDS011;44977;53.132;6.408;2023-04-01T04:46:12;16.67;;;13.83;;
59207;SDS011;44977;53.132;6.408;2023-04-01T04:51:16;17.52;;;14.48;;
59207;SDS011;44977;53.132;6.408;2023-04-01T04:56:19;17.02;;;14.73;;
59207;SDS011;44977;53.132;6.408;2023-04-01T05:01:20;17.80;;;14.10;;
59207;SDS011;44977;53.132;6.408;2023-04-01T05:06:21;18.08;;;14.95;;
59207;SDS011;44977;53.132;6.408;2023-04-01T05:11:22;18.88;;;15.82;;
59207;SDS011;44977;53.132;6.408;2023-04-01T05:16:23;17.45;;;15.50;;
59207;SDS011;44977;53.132;6.408;2023-04-01T05:21:23;18.60;;;16.17;;
59207;SDS011;44977;53.132;6.408;2023-04-01T05:26:24;17.63;;;14.80;;
59207;SDS011;44977;53.132;6.408;2023-04-01T05:31:25;17.48;;;14.90;;
59207;SDS011;44977;53.132;6.408;2023-04-01T05:36:26;17.60;;;13.73;;
59207;SDS011;44977;53.132;6.408;2023-04-01T05:41:26;15.70;;;13.07;;
59207;SDS011;44977;53.132;6.408;2023-04-01T05:46:27;15.85;;;12.20;;
59207;SDS011;44977;53.132;6.408;2023-04-01T05:51:28;14.27;;;11.52;;
59207;SDS011;44977;53.132;6.408;2023-04-01T05:56:29;13.55;;;10.57;;
59207;SDS011;44977;53.132;6.408;2023-04-01T06:01:29;14.18;;;11.40;;
59207;SDS011;44977;53.132;6.408;2023-04-01T06:06:30;15.23;;;11.85;;
59207;SDS011;44977;53.132;6.408;2023-04-01T06:12:07;12.98;;;10.52;;
59207;SDS011;44977;53.132;6.408;2023-04-01T06:22:12;13.43;;;10.50;;
59207;SDS011;44977;53.132;6.408;2023-04-01T06:27:46;13.50;;;10.20;;
59207;SDS011;44977;53.132;6.408;2023-04-01T06:49:21;14.27;;;11.38;;
59207;SDS011;44977;53.132;6.408;2023-04-01T06:54:44;14.70;;;12.10;;
59207;SDS011;44977;53.132;6.408;2023-04-01T06:59:51;16.83;;;13.73;;
59207;SDS011;44977;53.132;6.408;2023-04-01T07:04:55;17.77;;;14.75;;
59207;SDS011;44977;53.132;6.408;2023-04-01T07:09:58;19.73;;;17.45;;
59207;SDS011;44977;53.132;6.408;2023-04-01T07:15:45;19.48;;;16.75;;
59207;SDS011;44977;53.132;6.408;2023-04-01T07:20:27;20.90;;;16.45;;
59207;SDS011;44977;53.132;6.408;2023-04-01T07:25:35;20.95;;;18.10;;
59207;SDS011;44977;53.132;6.408;2023-04-01T07:41:12;21.10;;;17.75;;
59207;SDS011;44977;53.132;6.408;2023-04-01T07:51:21;21.30;;;18.35;;
59207;SDS011;44977;53.132;6.408;2023-04-01T07:56:28;21.88;;;18.60;;
59207;SDS011;44977;53.132;6.408;2023-04-01T08:01:52;21.65;;;17.73;;
59207;SDS011;44977;53.132;6.408;2023-04-01T08:07:10;22.42;;;18.50;;
59207;SDS011;44977;53.132;6.408;2023-04-01T08:28:17;18.55;;;15.05;;
59207;SDS011;44977;53.132;6.408;2023-04-01T08:33:44;19.52;;;16.05;;
59207;SDS011;44977;53.132;6.408;2023-04-01T08:38:54;19.80;;;16.10;;
59207;SDS011;44977;53.132;6.408;2023-04-01T08:55:26;17.83;;;14.85;;
59207;SDS011;44977;53.132;6.408;2023-04-01T09:00:44;15.88;;;13.35;;
59207;SDS011;44977;53.132;6.408;2023-04-01T09:28:10;13.90;;;11.45;;
59207;SDS011;44977;53.132;6.408;2023-04-01T09:44:37;11.80;;;8.88;;
59207;SDS011;44977;53.132;6.408;2023-04-01T10:00:56;8.38;;;5.60;;
59207;SDS011;44977;53.132;6.408;2023-04-01T10:06:09;10.20;;;5.55;;
59207;SDS011;44977;53.132;6.408;2023-04-01T10:11:33;8.10;;;4.95;;
59207;SDS011;44977;53.132;6.408;2023-04-01T10:17:17;8.07;;;4.95;;
59207;SDS011;44977;53.132;6.408;2023-04-01T10:33:12;7.82;;;5.38;;
59207;SDS011;44977;53.132;6.408;2023-04-01T10:54:43;7.38;;;4.10;;
59207;SDS011;44977;53.132;6.408;2023-04-01T11:26:50;6.60;;;3.33;;
59207;SDS011;44977;53.132;6.408;2023-04-01T11:32:26;6.07;;;3.70;;
59207;SDS011;44977;53.132;6.408;2023-04-01T11:43:11;6.47;;;4.05;;
59207;SDS011;44977;53.132;6.408;2023-04-01T11:53:52;6.60;;;4.38;;
59207;SDS011;44977;53.132;6.408;2023-04-01T12:09:46;6.80;;;3.80;;
59207;SDS011;44977;53.132;6.408;2023-04-01T12:15:22;5.60;;;3.28;;
59207;SDS011;44977;53.132;6.408;2023-04-01T12:48:05;6.00;;;3.53;;
59207;SDS011;44977;53.132;6.408;2023-04-01T12:53:04;6.38;;;3.15;;
59207;SDS011;44977;53.132;6.408;2023-04-01T13:09:04;6.30;;;3.80;;
59207;SDS011;44977;53.132;6.408;2023-04-01T13:25:24;5.50;;;3.20;;
59207;SDS011;44977;53.132;6.408;2023-04-01T13:31:20;5.53;;;3.10;;
59207;SDS011;44977;53.132;6.408;2023-04-01T13:57:40;5.72;;;3.10;;
59207;SDS011;44977;53.132;6.408;2023-04-01T14:13:31;5.70;;;3.60;;
59207;SDS011;44977;53.132;6.408;2023-04-01T14:29:05;6.15;;;3.42;;
59207;SDS011;44977;53.132;6.408;2023-04-01T14:39:59;5.28;;;2.80;;
59207;SDS011;44977;53.132;6.408;2023-04-01T14:45:46;6.00;;;2.53;;
59207;SDS011;44977;53.132;6.408;2023-04-01T14:51:13;5.43;;;2.30;;
59207;SDS011;44977;53.132;6.408;2023-04-01T14:56:34;4.43;;;2.83;;
59207;SDS011;44977;53.132;6.408;2023-04-01T15:01:50;3.72;;;2.17;;
59207;SDS011;44977;53.132;6.408;2023-04-01T15:23:11;5.30;;;2.80;;
59207;SDS011;44977;53.132;6.408;2023-04-01T15:35:00;5.18;;;2.80;;
59207;SDS011;44977;53.132;6.408;2023-04-01T15:39:37;5.57;;;3.28;;
59207;SDS011;44977;53.132;6.408;2023-04-01T15:50:36;7.05;;;3.83;;
59207;SDS011;44977;53.132;6.408;2023-04-01T16:23:39;6.85;;;4.15;;
59207;SDS011;44977;53.132;6.408;2023-04-01T16:28:52;7.05;;;3.80;;
59207;SDS011;44977;53.132;6.408;2023-04-01T16:34:02;9.70;;;6.20;;
59207;SDS011;44977;53.132;6.408;2023-04-01T16:44:23;8.63;;;6.00;;
59207;SDS011;44977;53.132;6.408;2023-04-01T16:49:30;12.23;;;10.85;;
59207;SDS011;44977;53.132;6.408;2023-04-01T16:54:59;10.70;;;6.25;;
59207;SDS011;44977;53.132;6.408;2023-04-01T17:05:48;9.93;;;5.75;;
59207;SDS011;44977;53.132;6.408;2023-04-01T17:10:58;10.30;;;5.90;;
59207;SDS011;44977;53.132;6.408;2023-04-01T17:21:38;9.95;;;5.88;;
59207;SDS011;44977;53.132;6.408;2023-04-01T17:27:08;11.75;;;5.47;;
59207;SDS011;44977;53.132;6.408;2023-04-01T17:43:02;9.60;;;5.72;;
59207;SDS011;44977;53.132;6.408;2023-04-01T17:54:25;9.75;;;5.60;;
59207;SDS011;44977;53.132;6.408;2023-04-01T18:05:13;9.30;;;5.38;;
59207;SDS011;44977;53.132;6.408;2023-04-01T18:26:20;11.45;;;6.65;;
59207;SDS011;44977;53.132;6.408;2023-04-01T18:31:37;13.25;;;6.82;;
59207;SDS011;44977;53.132;6.408;2023-04-01T18:36:46;11.63;;;7.40;;
59207;SDS011;44977;53.132;6.408;2023-04-01T18:52:42;11.90;;;7.55;;
59207;SDS011;44977;53.132;6.408;2023-04-01T18:57:51;12.38;;;7.50;;
59207;SDS011;44977;53.132;6.408;2023-04-01T19:02:58;12.98;;;7.43;;
59207;SDS011;44977;53.132;6.408;2023-04-01T19:13:35;15.00;;;9.02;;
59207;SDS011;44977;53.132;6.408;2023-04-01T19:29:40;13.32;;;7.28;;
59207;SDS011;44977;53.132;6.408;2023-04-01T19:45:54;11.80;;;7.53;;
59207;SDS011;44977;53.132;6.408;2023-04-01T19:51:37;11.38;;;7.38;;
59207;SDS011;44977;53.132;6.408;2023-04-01T20:07:43;11.80;;;7.70;;
59207;SDS011;44977;53.132;6.408;2023-04-01T20:13:28;14.20;;;7.60;;
59207;SDS011;44977;53.132;6.408;2023-04-01T20:18:32;12.60;;;7.50;;
59207;SDS011;44977;53.132;6.408;2023-04-01T20:23:43;13.55;;;7.35;;
59207;SDS011;44977;53.132;6.408;2023-04-01T20:45:35;10.77;;;6.20;;
59207;SDS011;44977;53.132;6.408;2023-04-01T20:50:48;11.82;;;6.07;;
59207;SDS011;44977;53.132;6.408;2023-04-01T21:23:35;13.23;;;6.05;;
59207;SDS011;44977;53.132;6.408;2023-04-01T21:45:17;11.15;;;5.70;;
59207;SDS011;44977;53.132;6.408;2023-04-01T22:06:29;10.98;;;5.90;;
59207;SDS011;44977;53.132;6.408;2023-04-01T22:12:03;10.77;;;5.53;;
59207;SDS011;44977;53.132;6.408;2023-04-01T22:17:41;9.10;;;4.93;;
59207;SDS011;44977;53.132;6.408;2023-04-01T22:28:12;10.82;;;5.63;;
59207;SDS011;44977;53.132;6.408;2023-04-01T22:39:05;9.95;;;5.10;;
59207;SDS011;44977;53.132;6.408;2023-04-01T22:50:15;10.10;;;4.50;;
59207;SDS011;44977;53.132;6.408;2023-04-01T22:55:24;9.00;;;4.38;;
59207;SDS011;44977;53.132;6.408;2023-04-01T23:00:30;10.63;;;4.57;;
59207;SDS011;44977;53.132;6.408;2023-04-01T23:05:36;10.55;;;4.93;;
59207;SDS011;44977;53.132;6.408;2023-04-01T23:11:09;10.20;;;5.63;;
59207;SDS011;44977;53.132;6.408;2023-04-01T23:16:23;9.45;;;5.10;;
59207;SDS011;44977;53.132;6.408;2023-04-01T23:21:38;9.38;;;4.90;;
59207;SDS011;44977;53.132;6.408;2023-04-01T23:26:45;8.98;;;4.88;;
59207;SDS011;44977;53.132;6.408;2023-04-01T23:32:23;8.43;;;4.78;;
59207;SDS011;44977;53.132;6.408;2023-04-01T23:37:26;9.38;;;4.55;;
59207;SDS011;44977;53.132;6.408;2023-04-01T23:42:28;10.88;;;4.78;;
59207;SDS011;44977;53.132;6.408;2023-04-01T23:47:38;9.90;;;4.63;;
59207;SDS011;44977;53.132;6.408;2023-04-01T23:52:47;10.10;;;5.00;;
59207;SDS011;44977;53.132;6.408;2023-04-01T23:58:12;9.70;;;4.70;;
